Latest Weather Observations for Lucas Heights

IDN60901

Issued at 1:41 pm EDT Monday 23 October 2017 (issued every 10 minutes, with the page automatically refreshed every 10 minutes)

About weather observations | Map of Sydney area stations | Latest observations for Sydney area | Other Formats
Station Details ID: 066023 Name: LUCAS HEIGHTS AWS Lat: -34.05 Lon: 150.98 Height: 140.0 m
Data from the previous 72 hours. | See also: Recent months for locations in New South Wales
Date/Time
EDT
Temp
°C
App
Temp
°C
Dew
Point
°C
Rel
Hum
%
Delta-T
°C
Wind Press
QNH
hPa
Press
MSL
hPa
Rain since
9am
mm
Dir  Spd
km/h
Gust
km/h
Spd
kts
Gust
kts
23/01:30pm 20.0 17.5 9.7 51 5.5 ESE 13 24 7 13 1017.3 - 0.0
23/01:15pm 19.5 17.3 9.4 52 5.4 ESE 11 17 6 9 1017.4 - 0.0
23/01:00pm 19.7 17.7 8.7 49 5.8 ESE 9 19 5 10 1017.5 - 0.0
23/12:45pm 19.9 18.4 9.0 49 5.8 ESE 7 17 4 9 1017.6 - 0.0
23/12:30pm 19.3 17.3 8.6 50 5.6 ESE 9 19 5 10 1017.7 - 0.0
23/12:15pm 19.4 16.5 8.3 48 5.8 ESE 13 22 7 12 1017.8 - 0.0
23/12:00pm 19.5 16.7 8.5 49 5.8 ESE 13 22 7 12 1017.9 - 0.0
23/11:45am 19.2 16.4 8.4 49 5.6 ESE 13 22 7 12 1018.1 - 0.0
23/11:30am 18.9 16.3 7.9 49 5.7 ESE 11 19 6 10 1018.2 - 0.0
23/11:15am 18.8 16.3 8.1 49 5.5 SE 11 19 6 10 1018.3 - 0.0
23/11:00am 18.9 16.8 8.4 50 5.5 S 9 17 5 9 1018.3 - 0.0
23/10:45am 18.6 16.1 8.2 50 5.4 SSE 11 19 6 10 1018.3 - 0.0
23/10:30am 18.1 15.6 8.3 52 5.1 SSE 11 19 6 10 1018.3 - 0.0
23/10:15am 17.7 14.5 8.3 54 4.8 SE 15 22 8 12 1018.3 - 0.0
23/10:00am 17.7 14.9 8.7 55 4.7 SSE 13 19 7 10 1018.3 - 0.0
23/09:45am 17.4 14.4 9.1 58 4.3 SSE 15 24 8 13 1018.2 - 0.0
23/09:30am 17.0 14.1 9.5 61 3.9 SSE 15 26 8 14 1018.0 - 0.0
23/09:15am 16.7 13.4 9.7 63 3.7 SSE 17 22 9 12 1017.9 - 0.0
23/09:00am 16.6 13.8 10.0 65 3.5 SSE 15 22 8 12 1017.8 - 9.9
23/08:45am 16.4 14.1 10.3 67 3.2 SSE 13 26 7 14 1017.7 - 9.9
23/08:30am 16.0 14.2 10.9 72 2.7 S 11 19 6 10 1017.6 - 9.9
23/08:15am 15.4 13.9 10.7 73 2.5 S 9 17 5 9 1017.4 - 9.9
23/08:00am 14.7 13.6 10.5 76 2.2 S 7 13 4 7 1017.3 - 9.9
23/07:45am 14.1 12.9 10.3 78 2.0 S 7 11 4 6 1017.2 - 9.9
23/07:30am 13.5 12.3 10.2 80 1.7 S 7 11 4 6 1017.0 - 9.9
23/07:15am 12.7 11.5 10.2 85 1.3 S 7 9 4 5 1017.0 - 9.9
23/07:00am 11.7 9.9 9.6 87 1.1 S 9 13 5 7 1016.9 - 9.9
23/06:45am 11.0 8.4 9.2 89 0.9 SSW 13 17 7 9 1016.9 - 9.9
23/06:30am 10.8 8.1 8.9 88 0.9 SSW 13 17 7 9 1016.7 - 9.9
23/06:15am 10.9 8.2 9.1 89 0.9 SSW 13 15 7 8 1016.6 - 9.9
23/06:00am 10.9 8.3 9.2 89 0.9 SSW 13 15 7 8 1016.3 - 9.9
23/05:45am 11.1 8.5 9.5 90 0.8 SSW 13 17 7 9 1016.2 - 9.9
23/05:30am 11.2 9.1 9.8 91 0.7 SSW 11 13 6 7 1016.0 - 9.9
23/05:15am 10.5 8.3 9.2 92 0.7 SSW 11 13 6 7 1016.0 - 9.9
23/05:00am 10.3 8.4 8.9 91 0.7 S 9 13 5 7 1015.8 - 9.9
23/04:45am 10.2 8.2 8.7 90 0.7 S 9 13 5 7 1015.7 - 9.9
23/04:30am 10.7 8.1 9.3 91 0.7 S 13 17 7 9 1015.6 - 9.9
23/04:15am 10.4 7.7 9.0 91 0.7 S 13 17 7 9 1015.7 - 9.9
23/04:00am 10.7 8.8 9.2 90 0.8 S 9 13 5 7 1015.7 - 9.9
23/03:45am 10.8 9.3 9.3 90 0.8 S 7 11 4 6 1015.8 - 9.9
23/03:30am 11.0 8.8 9.4 90 0.8 S 11 13 6 7 1015.8 - 9.9
23/03:15am 11.1 8.5 9.4 89 0.9 S 13 17 7 9 1015.9 - 9.9
23/03:00am 11.6 9.2 9.9 89 0.9 S 13 15 7 8 1016.0 - 9.9
23/02:45am 11.9 9.5 10.1 89 0.9 S 13 17 7 9 1016.1 - 9.9
23/02:30am 12.0 9.6 10.2 89 0.9 S 13 17 7 9 1016.2 - 9.9
23/02:15am 11.9 9.9 10.0 88 1.0 S 11 13 6 7 1016.3 - 9.9
23/02:00am 12.2 9.8 10.2 87 1.0 SSW 13 15 7 8 1016.2 - 9.9
23/01:45am 12.5 10.6 10.5 88 1.0 SSW 11 13 6 7 1016.2 - 9.9
23/01:30am 12.6 10.7 10.6 88 1.0 SSW 11 17 6 9 1016.2 - 9.9
23/01:15am 12.6 10.7 10.5 87 1.1 SW 11 15 6 8 1016.3 - 9.9
23/01:00am 12.9 10.0 10.9 88 1.1 SW 17 19 9 10 1016.3 - 9.9
23/12:45am 12.8 10.2 10.8 88 1.1 SW 15 19 8 10 1016.3 - 9.9
23/12:30am 12.9 10.7 10.9 88 1.1 SW 13 15 7 8 1016.3 - 9.9
23/12:15am 13.2 11.1 11.0 86 1.2 SW 13 17 7 9 1016.3 - 9.9
23/12:00am 13.5 11.1 11.3 86 1.2 SW 15 17 8 9 1016.3 - 9.9
 
Date/Time
EDT
Temp
°C
App
Temp
°C
Dew
Point
°C
Rel
Hum
%
Delta-T
°C
Wind Press
QNH
hPa
Press
MSL
hPa
Rain since
9am
mm
Dir  Spd
km/h
Gust
km/h
Spd
kts
Gust
kts
22/11:45pm 13.6 12.0 11.6 88 1.1 SW 11 13 6 7 1016.2 - 9.9
22/11:30pm 13.5 11.9 11.7 89 1.0 SW 11 13 6 7 1016.2 - 9.9
22/11:15pm 13.5 12.4 12.0 91 0.8 SSW 9 11 5 6 1016.2 - 9.9
22/11:00pm 13.2 12.4 11.7 91 0.8 S 7 11 4 6 1016.1 - 9.9
22/10:45pm 13.1 12.3 11.6 91 0.8 S 7 11 4 6 1016.1 - 9.9
22/10:30pm 13.1 11.9 11.6 91 0.8 S 9 11 5 6 1016.1 - 9.9
22/10:15pm 13.2 12.4 11.6 90 0.9 S 7 9 4 5 1016.1 - 9.9
22/10:00pm 13.3 12.7 11.7 90 0.9 S 6 9 3 5 1016.0 - 9.9
22/09:45pm 13.4 12.8 11.7 89 0.9 S 6 9 3 5 1015.9 - 9.9
22/09:30pm 13.6 13.4 11.8 89 1.0 SSE 4 4 2 2 1015.8 - 9.9
22/09:15pm 13.7 13.5 11.8 88 1.0 ESE 4 7 2 4 1015.7 - 9.9
22/09:00pm 13.9 13.4 11.9 88 1.1 E 6 9 3 5 1015.5 - 9.9
22/08:45pm 14.0 13.9 12.0 88 1.1 E 4 6 2 3 1015.4 - 9.9
22/08:30pm 14.0 13.9 12.0 88 1.1 ENE 4 6 2 3 1015.3 - 9.9
22/08:15pm 14.0 14.3 12.1 88 1.0 ENE 2 6 1 3 1015.1 - 9.9
22/08:00pm 14.2 14.1 12.2 88 1.1 SE 4 6 2 3 1015.0 - 9.9
22/07:45pm 14.3 13.7 12.3 88 1.1 E 7 11 4 6 1014.7 - 9.9
22/07:30pm 14.4 13.8 12.4 88 1.1 ESE 7 13 4 7 1014.5 - 9.9
22/07:15pm 14.4 13.4 12.4 88 1.1 ESE 9 13 5 7 1014.2 - 9.9
22/07:00pm 14.4 13.0 12.2 87 1.2 ESE 11 17 6 9 1013.9 - 9.9
22/06:45pm 14.5 12.3 12.2 86 1.3 E 15 22 8 12 1013.8 - 9.9
22/06:30pm 14.8 13.1 12.3 85 1.4 ESE 13 20 7 11 1013.6 - 9.9
22/06:15pm 15.2 13.5 12.5 84 1.5 ESE 13 19 7 10 1013.4 - 9.9
22/06:00pm 15.5 14.3 12.8 84 1.5 E 11 19 6 10 1013.2 - 9.9
22/05:45pm 15.9 14.5 13.3 84 1.5 E 13 19 7 10 1013.0 - 9.9
22/05:30pm 15.8 14.8 13.5 86 1.3 ESE 11 19 6 10 1013.0 - 9.9
22/05:15pm 15.4 14.0 13.3 87 1.2 ESE 13 20 7 11 1012.9 - 9.9
22/05:00pm 15.1 14.0 13.2 88 1.1 ESE 11 20 6 11 1012.8 - 9.9
22/04:45pm 15.0 13.2 13.2 89 1.0 SE 15 24 8 13 1012.6 - 9.9
22/04:30pm 14.8 13.3 13.1 89 0.9 SE 13 19 7 10 1012.5 - 9.9
22/04:15pm 14.5 13.7 12.9 90 0.9 SE 9 22 5 12 1012.5 - 9.9
22/04:00pm 14.1 12.4 12.5 90 0.9 SE 13 24 7 13 1012.4 - 9.9
22/03:45pm 13.8 12.0 12.1 89 0.9 SSE 13 24 7 13 1012.6 - 9.9
22/03:30pm 13.6 10.4 11.9 89 0.9 SE 20 32 11 17 1012.6 - 9.7
22/03:15pm 13.5 10.7 11.4 87 1.1 SSE 17 26 9 14 1013.3 - 9.1
22/03:00pm 13.6 10.9 10.5 81 1.6 S 15 24 8 13 1013.2 - 7.0
22/02:45pm 15.9 14.8 10.8 71 2.7 ESE 7 24 4 13 1012.6 - 0.6
22/02:30pm 17.3 13.9 11.1 67 3.4 E 20 30 11 16 1012.3 - 0.0
22/02:15pm 18.1 14.8 11.0 63 3.9 E 19 28 10 15 1012.3 - 0.0
22/02:00pm 18.9 15.9 10.6 58 4.5 ENE 17 30 9 16 1012.3 - 0.0
22/01:45pm 19.6 17.9 11.2 58 4.6 ENE 11 24 6 13 1012.3 - 0.0
22/01:30pm 19.0 15.9 10.3 57 4.7 ENE 17 24 9 13 1012.3 - 0.0
22/01:15pm 20.3 17.2 10.4 53 5.4 NE 17 24 9 13 1012.4 - 0.0
22/01:00pm 19.2 17.0 9.5 53 5.2 ENE 11 19 6 10 1012.6 - 0.0
22/12:45pm 20.0 17.6 10.0 52 5.4 NE 13 22 7 12 1012.8 - 0.0
22/12:30pm 19.4 17.5 8.9 50 5.5 NNE 9 19 5 10 1012.9 - 0.0
22/12:15pm 19.1 17.6 8.6 50 5.5 N 6 13 3 7 1013.0 - 0.0
22/12:00pm 18.6 17.1 8.5 52 5.3 NE 6 11 3 6 1013.3 - 0.0
22/11:45am 18.6 17.0 8.6 52 5.2 N 7 17 4 9 1013.6 - 0.0
22/11:30am 18.5 16.9 8.9 53 5.0 N 7 13 4 7 1013.7 - 0.0
22/11:15am 18.1 17.2 9.4 57 4.6 NW 4 9 2 5 1014.0 - 0.0
22/11:00am 17.6 16.8 9.8 60 4.1 WNW 4 9 2 5 1014.3 - 0.0
22/10:45am 17.8 16.4 9.6 58 4.3 W 7 17 4 9 1014.3 - 0.0
22/10:30am 17.9 17.3 10.4 61 4.0 NNW 4 13 2 7 1014.4 - 0.0
22/10:15am 16.4 15.4 10.3 67 3.2 WNW 6 13 3 7 1014.6 - 0.0
22/10:00am 16.4 15.2 10.2 66 3.3 NW 7 15 4 8 1014.8 - 0.0
22/09:45am 16.3 15.3 10.4 68 3.1 WNW 6 11 3 6 1014.9 - 0.0
22/09:30am 16.2 15.1 10.5 69 3.0 WNW 7 13 4 7 1014.9 - 0.0
22/09:15am 15.6 14.8 11.0 74 2.5 N 6 9 3 5 1015.0 - 0.0
22/09:00am 15.0 14.1 10.6 75 2.3 NW 6 9 3 5 1015.0 - 0.0
22/08:45am 15.0 14.1 10.6 75 2.3 WNW 6 11 3 6 1015.0 - 0.0
22/08:30am 14.7 14.1 10.5 76 2.2 NW 4 9 2 5 1014.9 - 0.0
22/08:15am 14.7 14.8 11.6 82 1.7 NW 2 9 1 5 1014.9 - 0.0
22/08:00am 13.8 13.8 11.1 84 1.4 ENE 2 4 1 2 1014.8 - 0.0
22/07:45am 13.6 13.6 11.1 85 1.3 E 2 6 1 3 1014.8 - 0.0
22/07:30am 13.3 12.5 10.9 85 1.3 SSE 6 7 3 4 1014.8 - 0.0
22/07:15am 13.1 12.6 10.8 86 1.2 S 4 6 2 3 1014.8 - 0.0
22/07:00am 13.0 12.1 10.7 86 1.2 S 6 9 3 5 1014.8 - 0.0
22/06:45am 12.7 11.2 10.5 86 1.1 S 9 11 5 6 1014.8 - 0.0
22/06:30am 12.5 10.9 10.3 86 1.1 SSW 9 11 5 6 1014.7 - 0.0
22/06:15am 12.4 10.8 10.2 86 1.1 SSW 9 11 5 6 1014.7 - 0.0
22/06:00am 12.4 10.8 10.1 86 1.2 SSW 9 11 5 6 1014.6 - 0.0
22/05:45am 12.3 10.7 10.1 86 1.1 SSW 9 11 5 6 1014.6 - 0.0
22/05:30am 12.2 10.5 10.0 86 1.1 SSW 9 11 5 6 1014.6 - 0.0
22/05:15am 12.2 10.5 10.0 86 1.1 SW 9 11 5 6 1014.6 - 0.0
22/05:00am 12.3 11.2 10.1 86 1.1 WSW 6 9 3 5 1014.6 - 0.0
22/04:45am 12.4 11.4 10.2 86 1.1 W 6 7 3 4 1014.7 - 0.0
22/04:30am 12.3 11.7 10.3 87 1.0 SSW 4 9 2 5 1014.7 - 0.0
22/04:15am 12.1 10.5 10.1 87 1.0 S 9 9 5 5 1014.8 - 0.0
22/04:00am 12.0 10.3 10.0 87 1.0 S 9 11 5 6 1014.9 - 0.0
22/03:45am 11.9 10.2 10.0 88 1.0 SSE 9 11 5 6 1015.0 - 0.0
22/03:30am 11.9 10.3 10.1 89 0.9 SSE 9 11 5 6 1015.1 - 0.0
22/03:15am 11.7 10.0 9.9 89 0.9 SSE 9 11 5 6 1015.4 - 0.0
22/03:00am 11.5 9.8 9.7 89 0.9 SSE 9 11 5 6 1015.5 - 0.0
22/02:45am 11.5 9.8 9.7 89 0.9 SSE 9 9 5 5 1015.7 - 0.0
22/02:30am 11.5 9.8 9.7 89 0.9 S 9 11 5 6 1015.9 - 0.0
22/02:15am 11.5 9.8 9.7 89 0.9 S 9 9 5 5 1016.0 - 0.0
22/02:00am 11.6 10.3 9.8 89 0.9 S 7 9 4 5 1016.2 - 0.0
22/01:45am 11.4 10.0 9.6 89 0.9 S 7 9 4 5 1016.4 - 0.0
22/01:30am 11.1 9.6 9.3 89 0.9 SSE 7 9 4 5 1016.5 - 0.0
22/01:15am 11.1 9.6 9.1 87 1.0 SSE 7 9 4 5 1016.7 - 0.0
22/01:00am 11.2 9.7 9.2 87 1.0 SSE 7 9 4 5 1016.9 - 0.0
22/12:45am 11.2 9.7 9.2 87 1.0 SSE 7 9 4 5 1017.0 - 0.0
22/12:30am 11.4 10.1 9.3 87 1.1 SSE 6 9 3 5 1017.2 - 0.0
22/12:15am 11.5 10.2 9.3 86 1.1 SSE 6 7 3 4 1017.4 - 0.0
22/12:00am 11.6 10.3 9.3 86 1.2 SSE 6 7 3 4 1017.5 - 0.0
 
Date/Time
EDT
Temp
°C
App
Temp
°C
Dew
Point
°C
Rel
Hum
%
Delta-T
°C
Wind Press
QNH
hPa
Press
MSL
hPa
Rain since
9am
mm
Dir  Spd
km/h
Gust
km/h
Spd
kts
Gust
kts
21/11:45pm 11.8 10.6 9.5 86 1.2 SSE 6 7 3 4 1017.6 - 0.0
21/11:30pm 11.9 10.7 9.5 85 1.2 SSE 6 7 3 4 1017.7 - 0.0
21/11:15pm 11.8 10.5 9.3 85 1.3 SE 6 7 3 4 1017.8 - 0.0
21/11:00pm 11.9 10.6 9.3 84 1.3 SE 6 6 3 3 1017.8 - 0.0
21/10:45pm 12.2 11.0 9.5 83 1.4 ESE 6 7 3 4 1017.9 - 0.0
21/10:30pm 12.3 11.1 9.6 83 1.4 ESE 6 7 3 4 1018.0 - 0.0
21/10:15pm 12.3 11.1 9.5 83 1.4 ESE 6 6 3 3 1018.1 - 0.0
21/10:00pm 12.3 11.0 9.3 82 1.5 ESE 6 7 3 4 1018.2 - 0.0
21/09:45pm 12.4 10.9 9.2 81 1.6 E 7 9 4 5 1018.2 - 0.0
21/09:30pm 12.7 10.9 9.3 80 1.7 ESE 9 11 5 6 1018.2 - 0.0
21/09:15pm 12.8 11.0 9.3 79 1.8 ESE 9 11 5 6 1018.1 - 0.0
21/09:00pm 13.1 11.3 9.4 78 1.9 ESE 9 13 5 7 1018.1 - 0.0
21/08:45pm 13.3 11.5 9.4 77 2.0 SE 9 13 5 7 1018.0 - 0.0
21/08:30pm 13.4 11.6 9.3 76 2.1 ESE 9 13 5 7 1017.9 - 0.0
21/08:15pm 13.6 11.8 9.4 76 2.2 ESE 9 13 5 7 1017.9 - 0.0
21/08:00pm 13.8 11.6 9.4 75 2.3 ESE 11 15 6 8 1017.8 - 0.0
21/07:45pm 13.9 12.1 9.4 74 2.3 ESE 9 13 5 7 1017.8 - 0.0
21/07:30pm 14.1 11.9 9.3 73 2.5 ESE 11 15 6 8 1017.8 - 0.0
21/07:15pm 14.3 11.6 9.1 71 2.7 ESE 13 20 7 11 1017.8 - 0.0
21/07:00pm 14.6 11.1 8.8 68 3.0 ESE 17 22 9 12 1017.8 - 0.0
21/06:45pm 14.9 11.8 8.8 67 3.1 ESE 15 22 8 12 1017.9 - 0.0
21/06:30pm 15.2 11.3 8.8 65 3.3 ESE 19 24 10 13 1017.8 - 0.0
21/06:15pm 15.7 12.6 8.8 63 3.5 ESE 15 22 8 12 1017.8 - 0.0
21/06:00pm 15.7 12.5 8.4 62 3.7 SE 15 22 8 12 1017.8 - 0.0
21/05:45pm 16.1 12.5 8.4 60 3.9 SE 17 24 9 13 1017.8 - 0.0
21/05:30pm 16.3 12.8 8.6 60 4.0 ESE 17 24 9 13 1017.8 - 0.0
21/05:15pm 16.6 13.0 8.3 58 4.3 ESE 17 22 9 12 1017.8 - 0.0
21/05:00pm 16.7 13.1 8.4 58 4.3 SE 17 24 9 13 1017.9 - 0.0
21/04:45pm 16.6 12.4 8.1 57 4.3 ESE 20 28 11 15 1017.9 - 0.0
21/04:30pm 17.0 13.1 8.6 57 4.3 SE 19 26 10 14 1018.0 - 0.0
21/04:15pm 17.1 13.1 8.4 56 4.5 SSE 19 26 10 14 1018.1 - 0.0
21/04:00pm 17.0 12.7 7.9 55 4.6 SSE 20 30 11 16 1018.3 - 0.0
21/03:45pm 17.3 13.0 7.9 54 4.8 SSE 20 30 11 16 1018.4 - 0.0
21/03:30pm 17.2 12.5 7.7 53 4.8 SE 22 35 12 19 1018.6 - 0.0
21/03:15pm 17.3 12.5 7.5 52 5.0 ESE 22 30 12 16 1018.8 - 0.0
21/03:00pm 17.5 13.4 7.8 53 4.9 SE 19 28 10 15 1019.0 - 0.0
21/02:45pm 17.2 13.1 7.8 54 4.8 SE 19 28 10 15 1019.2 - 0.0
21/02:30pm 17.3 12.3 8.0 54 4.8 ESE 24 33 13 18 1019.3 - 0.0
21/02:15pm 17.6 13.4 8.1 53 4.9 SSE 20 30 11 16 1019.5 - 0.0
21/02:00pm 17.4 13.2 8.2 54 4.7 SSE 20 32 11 17 1019.8 - 0.0
21/01:45pm 17.6 13.5 8.5 55 4.7 SSE 20 33 11 18 1019.9 - 0.0
21/01:30pm 17.4 12.5 8.6 56 4.6 SSE 24 39 13 21 1020.1 - 0.0
21/01:15pm 17.1 12.2 8.6 57 4.4 SSE 24 39 13 21 1020.3 - 0.0
21/01:00pm 16.9 12.0 8.4 57 4.4 S 24 35 13 19 1020.4 - 0.0
21/12:45pm 17.3 12.7 8.3 55 4.6 S 22 35 12 19 1020.6 - 0.0
21/12:30pm 16.7 12.8 8.5 58 4.2 S 19 30 10 16 1020.8 - 0.0
21/12:15pm 16.3 11.7 8.1 58 4.2 SE 22 35 12 19 1021.0 - 0.0
21/12:00pm 16.8 12.1 7.9 55 4.5 SSE 22 35 12 19 1021.2 - 0.0
21/11:45am 16.5 11.4 7.8 56 4.4 SSE 24 37 13 20 1021.4 - 0.0
21/11:30am 16.8 12.4 7.5 54 4.7 SSE 20 32 11 17 1021.5 - 0.0
21/11:15am 17.1 13.4 7.8 54 4.7 SSE 17 30 9 16 1021.7 - 0.0
21/11:00am 16.7 12.3 7.2 53 4.8 SSE 20 32 11 17 1021.8 - 0.0
21/10:45am 16.5 11.3 7.1 53 4.7 SSE 24 35 13 19 1021.9 - 0.0
21/10:30am 16.3 11.1 7.2 55 4.5 SSE 24 33 13 18 1021.9 - 0.0
21/10:15am 16.2 11.8 7.6 56 4.3 SSE 20 37 11 20 1021.9 - 0.0
21/10:00am 16.0 11.2 7.4 56 4.3 SSE 22 35 12 19 1021.9 - 0.0
21/09:45am 15.8 11.0 7.4 57 4.2 SSE 22 35 12 19 1021.8 - 0.0
21/09:30am 16.2 12.1 7.9 58 4.2 S 19 32 10 17 1021.9 - 0.0
21/09:15am 15.5 11.1 7.6 59 4.0 SSE 20 35 11 19 1021.9 - 0.0
21/09:00am 15.1 10.3 7.3 59 3.9 SSE 22 35 12 19 1022.0 - 9.9
21/08:45am 14.9 9.6 7.0 59 3.9 SSE 24 35 13 19 1022.1 - 9.9
21/08:30am 14.7 12.4 7.4 61 3.6 S 9 24 5 13 1022.2 - 9.9
21/08:15am 13.5 11.1 6.9 64 3.2 SSW 9 13 5 7 1022.1 - 9.9
21/08:00am 12.8 10.3 6.7 66 2.9 SSW 9 17 5 9 1022.0 - 9.9
21/07:45am 12.0 9.1 6.5 69 2.6 SSW 11 22 6 12 1022.0 - 9.9
21/07:30am 11.4 7.7 6.4 71 2.4 SSW 15 19 8 10 1021.9 - 9.9
21/07:15am 10.6 6.9 6.1 74 2.1 SW 15 20 8 11 1022.0 - 9.9
21/07:00am 10.4 5.9 6.0 74 2.1 SW 19 22 10 12 1022.0 - 9.9
21/06:45am 10.1 5.6 5.9 75 2.0 SW 19 20 10 11 1022.0 - 9.9
21/06:30am 10.3 6.1 5.9 74 2.0 SW 17 20 9 11 1021.9 - 9.9
21/06:15am 10.5 6.7 6.0 74 2.1 SSW 15 22 8 12 1021.8 - 9.9
21/06:00am 10.7 7.0 6.1 73 2.2 SSW 15 19 8 10 1021.8 - 9.9
21/05:45am 10.9 7.5 6.0 72 2.3 SSW 13 20 7 11 1021.8 - 9.9
21/05:30am 11.1 6.9 5.9 70 2.4 SSW 17 24 9 13 1021.8 - 9.9
21/05:15am 11.5 7.4 6.1 69 2.5 SSW 17 22 9 12 1022.0 - 9.9
21/05:00am 11.7 7.6 6.1 68 2.6 SSW 17 22 9 12 1022.0 - 9.9
21/04:45am 11.8 8.1 6.1 68 2.7 SSW 15 22 8 12 1022.1 - 9.9
21/04:30am 12.2 8.5 6.2 67 2.9 SSW 15 22 8 12 1022.3 - 9.9
21/04:15am 12.5 9.2 6.5 67 2.9 S 13 22 7 12 1022.6 - 9.9
21/04:00am 12.6 9.7 6.6 67 2.9 S 11 19 6 10 1022.5 - 9.9
21/03:45am 12.9 9.3 6.6 65 3.0 S 15 24 8 13 1022.5 - 9.9
21/03:30am 13.1 8.5 6.6 64 3.1 S 20 30 11 16 1022.5 - 9.9
21/03:15am 13.3 8.9 6.6 64 3.2 S 19 35 10 19 1022.5 - 9.9
21/03:00am 13.4 8.4 6.3 62 3.4 S 22 37 12 20 1022.6 - 9.9
21/02:45am 13.6 9.2 6.4 62 3.5 S 19 37 10 20 1022.8 - 9.9
21/02:30am 13.7 9.1 6.5 62 3.5 S 20 35 11 19 1022.7 - 9.9
21/02:15am 13.7 9.1 6.3 61 3.6 S 20 37 11 20 1022.8 - 9.9
21/02:00am 13.7 9.6 6.3 61 3.6 S 17 32 9 17 1022.9 - 9.9
21/01:45am 13.8 9.1 6.1 59 3.7 S 20 37 11 20 1023.0 - 9.9
21/01:30am 13.9 9.2 6.1 59 3.7 SSE 20 39 11 21 1023.1 - 9.9
21/01:15am 14.0 8.4 5.2 55 4.2 SSE 24 39 13 21 1023.2 - 9.9
21/01:00am 14.2 9.0 5.4 55 4.2 SSE 22 32 12 17 1023.4 - 9.9
21/12:45am 14.2 9.2 6.4 59 3.8 SSE 22 35 12 19 1023.6 - 9.9
21/12:30am 14.4 9.0 6.4 58 3.9 SSE 24 35 13 19 1023.7 - 9.9
21/12:15am 14.4 9.2 7.3 62 3.5 SSE 24 43 13 23 1023.9 - 9.9
21/12:00am 14.4 10.0 7.5 63 3.4 SSE 20 28 11 15 1023.9 - 9.9
 
Date/Time
EDT
Temp
°C
App
Temp
°C
Dew
Point
°C
Rel
Hum
%
Delta-T
°C
Wind Press
QNH
hPa
Press
MSL
hPa
Rain since
9am
mm
Dir  Spd
km/h
Gust
km/h
Spd
kts
Gust
kts
20/11:45pm 14.5 9.4 7.7 63 3.4 SSE 24 39 13 21 1023.9 - 9.9
20/11:30pm 14.5 9.9 8.1 65 3.2 SSE 22 35 12 19 1023.9 - 9.9
20/11:15pm 14.4 10.2 8.1 66 3.2 SSE 20 30 11 16 1023.9 - 9.9
20/11:00pm 14.5 9.9 8.0 65 3.3 SSE 22 32 12 17 1024.0 - 9.9
20/10:45pm 14.4 10.4 8.2 66 3.1 SSE 19 37 10 20 1024.0 - 9.9
20/10:30pm 14.5 10.2 8.0 65 3.3 SSE 20 30 11 16 1024.0 - 9.9
20/10:15pm 14.5 10.1 7.6 63 3.4 SSE 20 33 11 18 1023.8 - 9.9
20/10:00pm 14.5 10.1 7.5 63 3.5 SSE 20 32 11 17 1023.7 - 9.9
20/09:45pm 14.6 9.4 7.3 61 3.6 SSE 24 39 13 21 1023.8 - 9.9
20/09:30pm 14.6 9.0 8.7 67 3.0 SSE 28 44 15 24 1023.8 - 9.9
20/09:15pm 14.4 9.8 9.6 73 2.5 SSE 24 39 13 21 1023.5 - 9.9
20/09:00pm 14.3 10.4 9.6 73 2.4 SSE 20 32 11 17 1023.5 - 9.9
20/08:45pm 14.2 10.0 9.7 74 2.3 SSE 22 32 12 17 1023.5 - 9.9
20/08:30pm 14.0 9.9 10.0 77 2.1 SSE 22 37 12 20 1023.3 - 9.9
20/08:15pm 13.8 10.2 10.4 80 1.8 SSE 20 33 11 18 1023.1 - 9.9
20/08:00pm 13.7 10.3 11.3 85 1.3 SSE 20 33 11 18 1022.8 - 9.9
20/07:45pm 13.5 9.9 11.8 89 0.9 SSE 22 32 12 17 1022.6 - 9.9
20/07:30pm 13.2 10.2 11.9 92 0.7 SSE 19 30 10 16 1022.4 - 9.9
20/07:15pm 13.1 9.9 11.9 92 0.6 SSE 20 35 11 19 1022.4 - 9.9
20/07:00pm 13.1 9.1 11.9 92 0.6 SSE 24 39 13 21 1022.3 - 9.9
20/06:45pm 13.1 9.5 12.0 93 0.6 SSE 22 35 12 19 1022.2 - 9.9
20/06:30pm 13.2 9.6 12.0 92 0.6 SSE 22 37 12 20 1022.0 - 9.7
20/06:15pm 13.3 10.2 12.1 92 0.6 SSE 20 35 11 19 1021.9 - 9.7
20/06:00pm 13.3 10.7 12.1 92 0.6 SSE 17 26 9 14 1021.6 - 9.5
20/05:45pm 13.2 10.1 12.1 93 0.6 SSE 20 30 11 16 1021.5 - 9.3
20/05:30pm 13.2 10.6 12.1 93 0.6 SSE 17 28 9 15 1021.3 - 8.9
20/05:15pm 13.2 10.0 12.0 92 0.6 SSE 20 35 11 19 1021.3 - 8.7
20/05:00pm 13.2 9.3 12.1 93 0.6 SSE 24 41 13 22 1021.1 - 8.4
20/04:45pm 13.3 9.4 12.1 92 0.6 SSE 24 39 13 21 1020.9 - 8.0
20/04:30pm 13.4 10.3 12.2 92 0.7 SSE 20 32 11 17 1020.8 - 7.4
20/04:15pm 13.4 10.8 12.1 92 0.7 SSE 17 33 9 18 1020.9 - 7.2
20/04:00pm 13.3 10.7 12.0 92 0.7 SSE 17 28 9 15 1020.9 - 6.7
20/03:45pm 13.3 10.1 12.0 92 0.7 SSE 20 37 11 20 1020.7 - 5.7
20/03:30pm 13.5 9.2 12.1 91 0.8 SSE 26 43 14 23 1020.6 - 4.6
20/03:15pm 13.6 9.0 12.2 91 0.8 SSE 28 46 15 25 1020.4 - 4.6
20/03:00pm 13.6 8.1 12.3 92 0.7 SSE 33 50 18 27 1020.3 - 4.6
20/02:45pm 13.5 7.2 12.2 92 0.7 SSE 37 52 20 28 1020.5 - 4.6
20/02:30pm 13.4 7.8 12.2 92 0.7 SSE 33 48 18 26 1020.3 - 4.4
20/02:15pm 13.4 7.4 12.1 92 0.7 SSE 35 52 19 28 1020.2 - 4.2
20/02:00pm 13.4 6.2 12.0 91 0.8 SSE 41 57 22 31 1020.4 - 4.0
20/01:45pm 13.6 6.4 12.0 90 0.9 SSE 41 56 22 30 1020.2 - 3.6

Latest Capital City Observations: Canberra | Sydney | Melbourne | Brisbane | Adelaide | Perth | Hobart | Darwin

Other Formats:

Comma delimited format used in spreadsheet applications
http://www.bom.gov.au/fwo/IDN60901/IDN60901.95757.axf

JavaScript Object Notation format (JSON) in row-major order
http://www.bom.gov.au/fwo/IDN60901/IDN60901.95757.json